sensor_id;sensor_type;location;lat;lon;timestamp;pressure;altitude;pressure_sealevel;temperature;humidity
52653;BME280;39353;42.864;12.014;2023-02-21T00:01:53;98310.65;;;21.52;49.92
52653;BME280;39353;42.864;12.014;2023-02-21T00:04:52;98304.02;;;21.50;49.96
52653;BME280;39353;42.864;12.014;2023-02-21T00:07:51;98309.39;;;21.48;49.94
52653;BME280;39353;42.864;12.014;2023-02-21T00:10:37;98305.86;;;21.46;50.01
52653;BME280;39353;42.864;12.014;2023-02-21T00:13:23;98302.41;;;21.45;50.04
52653;BME280;39353;42.864;12.014;2023-02-21T00:16:14;98304.81;;;21.43;50.09
52653;BME280;39353;42.864;12.014;2023-02-21T00:19:01;98302.67;;;21.41;50.17
52653;BME280;39353;42.864;12.014;2023-02-21T00:21:48;98300.78;;;21.39;50.22
52653;BME280;39353;42.864;12.014;2023-02-21T00:24:48;98294.94;;;21.37;50.22
52653;BME280;39353;42.864;12.014;2023-02-21T00:27:47;98294.13;;;21.35;50.17
52653;BME280;39353;42.864;12.014;2023-02-21T00:30:47;98288.71;;;21.33;50.35
52653;BME280;39353;42.864;12.014;2023-02-21T00:33:35;98288.79;;;21.31;50.24
52653;BME280;39353;42.864;12.014;2023-02-21T00:36:21;98288.98;;;21.30;50.29
52653;BME280;39353;42.864;12.014;2023-02-21T00:39:21;98287.10;;;21.27;50.29
52653;BME280;39353;42.864;12.014;2023-02-21T00:42:06;98287.98;;;21.26;50.36
52653;BME280;39353;42.864;12.014;2023-02-21T00:44:52;98285.92;;;21.25;50.22
52653;BME280;39353;42.864;12.014;2023-02-21T00:47:52;98289.27;;;21.23;50.26
52653;BME280;39353;42.864;12.014;2023-02-21T00:50:39;98287.09;;;21.22;50.38
52653;BME280;39353;42.864;12.014;2023-02-21T00:53:25;98289.52;;;21.20;50.39
52653;BME280;39353;42.864;12.014;2023-02-21T00:56:11;98293.18;;;21.19;50.47
52653;BME280;39353;42.864;12.014;2023-02-21T00:58:57;98293.80;;;21.17;50.44
52653;BME280;39353;42.864;12.014;2023-02-21T01:01:57;98287.64;;;21.17;50.46
52653;BME280;39353;42.864;12.014;2023-02-21T01:04:57;98288.13;;;21.16;50.59
52653;BME280;39353;42.864;12.014;2023-02-21T01:07:43;98275.79;;;21.15;50.57
52653;BME280;39353;42.864;12.014;2023-02-21T01:10:29;98272.69;;;21.14;50.64
52653;BME280;39353;42.864;12.014;2023-02-21T01:13:14;98270.34;;;21.13;50.64
52653;BME280;39353;42.864;12.014;2023-02-21T01:16:01;98271.13;;;21.11;50.50
52653;BME280;39353;42.864;12.014;2023-02-21T01:19:00;98268.89;;;21.09;50.67
52653;BME280;39353;42.864;12.014;2023-02-21T01:22:02;98267.80;;;21.07;50.67
52653;BME280;39353;42.864;12.014;2023-02-21T01:24:49;98261.20;;;21.06;50.78
52653;BME280;39353;42.864;12.014;2023-02-21T01:27:49;98264.86;;;21.05;50.71
52653;BME280;39353;42.864;12.014;2023-02-21T01:30:36;98264.88;;;21.05;50.78
52653;BME280;39353;42.864;12.014;2023-02-21T01:33:40;98263.95;;;21.03;50.75
52653;BME280;39353;42.864;12.014;2023-02-21T01:36:41;98261.92;;;21.02;50.83
52653;BME280;39353;42.864;12.014;2023-02-21T01:39:26;98258.29;;;21.01;50.77
52653;BME280;39353;42.864;12.014;2023-02-21T01:42:13;98255.00;;;21.00;50.76
52653;BME280;39353;42.864;12.014;2023-02-21T01:48:21;98249.59;;;20.96;50.95
52653;BME280;39353;42.864;12.014;2023-02-21T01:51:14;98250.16;;;20.95;51.02
52653;BME280;39353;42.864;12.014;2023-02-21T01:54:18;98247.69;;;20.93;50.95
52653;BME280;39353;42.864;12.014;2023-02-21T01:57:07;98246.61;;;20.92;50.82
52653;BME280;39353;42.864;12.014;2023-02-21T01:59:57;98245.84;;;20.90;51.07
52653;BME280;39353;42.864;12.014;2023-02-21T02:03:05;98244.55;;;20.88;51.09
52653;BME280;39353;42.864;12.014;2023-02-21T02:06:16;98242.48;;;20.87;50.97
52653;BME280;39353;42.864;12.014;2023-02-21T02:09:19;98237.73;;;20.86;51.04
52653;BME280;39353;42.864;12.014;2023-02-21T02:15:33;98230.56;;;20.85;51.18
52653;BME280;39353;42.864;12.014;2023-02-21T02:21:27;98223.98;;;20.83;51.20
52653;BME280;39353;42.864;12.014;2023-02-21T02:45:50;98203.64;;;20.76;51.14
52653;BME280;39353;42.864;12.014;2023-02-21T02:48:29;98206.10;;;20.75;51.27
52653;BME280;39353;42.864;12.014;2023-02-21T02:51:15;98206.98;;;20.75;51.21
52653;BME280;39353;42.864;12.014;2023-02-21T02:53:57;98203.71;;;20.74;51.33
52653;BME280;39353;42.864;12.014;2023-02-21T02:56:39;98204.38;;;20.73;51.19
52653;BME280;39353;42.864;12.014;2023-02-21T02:59:22;98204.50;;;20.72;51.36
52653;BME280;39353;42.864;12.014;2023-02-21T03:11:23;98198.16;;;20.69;51.14
52653;BME280;39353;42.864;12.014;2023-02-21T03:14:12;98195.48;;;20.67;51.24
52653;BME280;39353;42.864;12.014;2023-02-21T03:16:52;98191.74;;;20.68;51.32
52653;BME280;39353;42.864;12.014;2023-02-21T03:19:26;98189.85;;;20.67;51.21
52653;BME280;39353;42.864;12.014;2023-02-21T03:22:18;98186.24;;;20.67;51.18
52653;BME280;39353;42.864;12.014;2023-02-21T03:25:03;98195.77;;;20.66;51.19
52653;BME280;39353;42.864;12.014;2023-02-21T03:27:34;98194.39;;;20.66;51.25
52653;BME280;39353;42.864;12.014;2023-02-21T03:30:28;98197.91;;;20.64;51.24
52653;BME280;39353;42.864;12.014;2023-02-21T03:33:10;98196.05;;;20.63;51.30
52653;BME280;39353;42.864;12.014;2023-02-21T03:35:53;98190.60;;;20.61;51.34
52653;BME280;39353;42.864;12.014;2023-02-21T03:38:21;98195.05;;;20.61;51.33
52653;BME280;39353;42.864;12.014;2023-02-21T03:40:49;98188.13;;;20.60;51.42
52653;BME280;39353;42.864;12.014;2023-02-21T03:43:17;98193.88;;;20.59;51.42
52653;BME280;39353;42.864;12.014;2023-02-21T03:46:03;98193.83;;;20.58;51.44
52653;BME280;39353;42.864;12.014;2023-02-21T03:48:45;98189.79;;;20.57;51.44
52653;BME280;39353;42.864;12.014;2023-02-21T03:51:17;98190.42;;;20.56;51.54
52653;BME280;39353;42.864;12.014;2023-02-21T03:53:44;98192.85;;;20.56;51.52
52653;BME280;39353;42.864;12.014;2023-02-21T03:56:12;98195.91;;;20.54;51.61
52653;BME280;39353;42.864;12.014;2023-02-21T03:59:24;98198.38;;;20.53;51.54
52653;BME280;39353;42.864;12.014;2023-02-21T04:01:59;98195.99;;;20.54;51.57
52653;BME280;39353;42.864;12.014;2023-02-21T04:04:32;98194.49;;;20.53;51.60
52653;BME280;39353;42.864;12.014;2023-02-21T04:07:06;98197.94;;;20.52;51.62
52653;BME280;39353;42.864;12.014;2023-02-21T04:09:49;98197.89;;;20.50;51.65
52653;BME280;39353;42.864;12.014;2023-02-21T04:12:46;98197.93;;;20.50;51.59
52653;BME280;39353;42.864;12.014;2023-02-21T04:15:28;98195.55;;;20.49;51.76
52653;BME280;39353;42.864;12.014;2023-02-21T04:17:56;98199.61;;;20.49;51.72
52653;BME280;39353;42.864;12.014;2023-02-21T04:20:38;98195.16;;;20.48;51.66
52653;BME280;39353;42.864;12.014;2023-02-21T04:23:09;98192.69;;;20.47;51.65
52653;BME280;39353;42.864;12.014;2023-02-21T04:25:38;98195.16;;;20.47;51.75
52653;BME280;39353;42.864;12.014;2023-02-21T04:28:26;98192.59;;;20.45;51.69
52653;BME280;39353;42.864;12.014;2023-02-21T04:31:07;98195.23;;;20.45;51.63
52653;BME280;39353;42.864;12.014;2023-02-21T04:33:36;98192.71;;;20.45;51.66
52653;BME280;39353;42.864;12.014;2023-02-21T04:36:05;98196.36;;;20.45;51.61
52653;BME280;39353;42.864;12.014;2023-02-21T04:38:55;98198.63;;;20.44;51.70
52653;BME280;39353;42.864;12.014;2023-02-21T04:41:22;98195.52;;;20.44;51.72
52653;BME280;39353;42.864;12.014;2023-02-21T04:44:04;98196.52;;;20.43;51.77
52653;BME280;39353;42.864;12.014;2023-02-21T04:46:35;98197.83;;;20.42;51.74
52653;BME280;39353;42.864;12.014;2023-02-21T04:49:16;98194.63;;;20.41;51.82
52653;BME280;39353;42.864;12.014;2023-02-21T04:51:59;98194.59;;;20.40;51.77
52653;BME280;39353;42.864;12.014;2023-02-21T04:54:32;98195.98;;;20.39;51.84
52653;BME280;39353;42.864;12.014;2023-02-21T04:57:15;98195.69;;;20.38;51.68
52653;BME280;39353;42.864;12.014;2023-02-21T04:59:58;98195.92;;;20.38;51.72
52653;BME280;39353;42.864;12.014;2023-02-21T05:02:26;98191.40;;;20.36;51.82
52653;BME280;39353;42.864;12.014;2023-02-21T05:05:11;98194.80;;;20.37;51.79
52653;BME280;39353;42.864;12.014;2023-02-21T05:07:52;98187.83;;;20.36;51.86
52653;BME280;39353;42.864;12.014;2023-02-21T05:10:34;98187.79;;;20.35;51.84
52653;BME280;39353;42.864;12.014;2023-02-21T05:13:02;98185.23;;;20.35;51.80
52653;BME280;39353;42.864;12.014;2023-02-21T05:15:29;98184.68;;;20.34;51.82
52653;BME280;39353;42.864;12.014;2023-02-21T05:17:57;98181.11;;;20.33;51.82
52653;BME280;39353;42.864;12.014;2023-02-21T05:20:26;98180.23;;;20.33;51.78
52653;BME280;39353;42.864;12.014;2023-02-21T05:22:56;98176.04;;;20.33;51.80
52653;BME280;39353;42.864;12.014;2023-02-21T05:25:27;98175.61;;;20.32;51.75
52653;BME280;39353;42.864;12.014;2023-02-21T05:28:10;98178.71;;;20.32;51.71
52653;BME280;39353;42.864;12.014;2023-02-21T05:30:37;98175.27;;;20.31;51.77
52653;BME280;39353;42.864;12.014;2023-02-21T05:33:04;98173.39;;;20.30;51.76
52653;BME280;39353;42.864;12.014;2023-02-21T05:35:31;98169.86;;;20.29;51.88
52653;BME280;39353;42.864;12.014;2023-02-21T05:37:58;98168.86;;;20.28;51.86
52653;BME280;39353;42.864;12.014;2023-02-21T05:40:26;98167.23;;;20.28;51.95
52653;BME280;39353;42.864;12.014;2023-02-21T05:43:07;98167.92;;;20.27;51.84
52653;BME280;39353;42.864;12.014;2023-02-21T05:45:34;98167.88;;;20.26;51.90
52653;BME280;39353;42.864;12.014;2023-02-21T05:48:15;98166.34;;;20.26;51.97
52653;BME280;39353;42.864;12.014;2023-02-21T05:50:56;98169.95;;;20.26;52.13
52653;BME280;39353;42.864;12.014;2023-02-21T05:53:23;98172.22;;;20.25;52.18
52653;BME280;39353;42.864;12.014;2023-02-21T05:56:05;98173.80;;;20.24;52.10
52653;BME280;39353;42.864;12.014;2023-02-21T05:58:33;98174.94;;;20.24;51.90
52653;BME280;39353;42.864;12.014;2023-02-21T06:01:02;98177.69;;;20.22;52.08
52653;BME280;39353;42.864;12.014;2023-02-21T06:03:30;98177.23;;;20.21;52.03
52653;BME280;39353;42.864;12.014;2023-02-21T06:05:58;98179.54;;;20.22;52.06
52653;BME280;39353;42.864;12.014;2023-02-21T06:08:25;98178.74;;;20.21;51.99
52653;BME280;39353;42.864;12.014;2023-02-21T06:11:06;98172.12;;;20.20;51.79
52653;BME280;39353;42.864;12.014;2023-02-21T06:13:35;98171.07;;;20.20;51.95
52653;BME280;39353;42.864;12.014;2023-02-21T06:16:02;98171.23;;;20.20;51.99
52653;BME280;39353;42.864;12.014;2023-02-21T06:18:29;98169.73;;;20.20;51.98
52653;BME280;39353;42.864;12.014;2023-02-21T06:20:56;98169.39;;;20.21;52.44
52653;BME280;39353;42.864;12.014;2023-02-21T06:23:37;98167.21;;;20.22;52.33
52653;BME280;39353;42.864;12.014;2023-02-21T06:26:19;98166.79;;;20.21;52.23
52653;BME280;39353;42.864;12.014;2023-02-21T06:28:47;98169.55;;;20.20;52.22
52653;BME280;39353;42.864;12.014;2023-02-21T06:31:16;98166.42;;;20.21;52.15
52653;BME280;39353;42.864;12.014;2023-02-21T06:33:58;98170.56;;;20.21;51.90
52653;BME280;39353;42.864;12.014;2023-02-21T06:36:39;98168.05;;;20.21;52.15
52653;BME280;39353;42.864;12.014;2023-02-21T06:39:21;98169.02;;;20.22;52.08
52653;BME280;39353;42.864;12.014;2023-02-21T06:41:50;98167.14;;;20.22;51.86
52653;BME280;39353;42.864;12.014;2023-02-21T06:44:31;98166.91;;;20.21;51.97
52653;BME280;39353;42.864;12.014;2023-02-21T06:47:16;98167.55;;;20.21;52.02
52653;BME280;39353;42.864;12.014;2023-02-21T06:49:43;98163.90;;;20.19;51.90
52653;BME280;39353;42.864;12.014;2023-02-21T06:52:24;98163.89;;;20.19;51.93
52653;BME280;39353;42.864;12.014;2023-02-21T06:54:52;98162.05;;;20.19;52.03
52653;BME280;39353;42.864;12.014;2023-02-21T06:57:33;98165.59;;;20.20;52.24
52653;BME280;39353;42.864;12.014;2023-02-21T07:00:03;98165.33;;;20.21;51.97
52653;BME280;39353;42.864;12.014;2023-02-21T07:02:30;98168.64;;;20.22;52.17
52653;BME280;39353;42.864;12.014;2023-02-21T07:05:12;98167.35;;;20.23;52.16
52653;BME280;39353;42.864;12.014;2023-02-21T07:07:41;98167.56;;;20.25;52.08
52653;BME280;39353;42.864;12.014;2023-02-21T07:10:09;98165.04;;;20.26;51.86
52653;BME280;39353;42.864;12.014;2023-02-21T07:12:50;98162.01;;;20.26;52.04
52653;BME280;39353;42.864;12.014;2023-02-21T07:15:33;98160.21;;;20.28;51.93
52653;BME280;39353;42.864;12.014;2023-02-21T07:18:00;98161.27;;;20.28;51.97
52653;BME280;39353;42.864;12.014;2023-02-21T07:20:28;98164.63;;;20.29;51.93
52653;BME280;39353;42.864;12.014;2023-02-21T07:22:55;98168.53;;;20.30;51.86
52653;BME280;39353;42.864;12.014;2023-02-21T07:25:25;98169.70;;;20.30;51.80
52653;BME280;39353;42.864;12.014;2023-02-21T07:27:52;98167.55;;;20.30;51.86
52653;BME280;39353;42.864;12.014;2023-02-21T07:30:33;98163.87;;;20.29;51.94
52653;BME280;39353;42.864;12.014;2023-02-21T07:33:17;98160.17;;;20.28;52.02
52653;BME280;39353;42.864;12.014;2023-02-21T07:35:58;98162.90;;;20.28;51.94
52653;BME280;39353;42.864;12.014;2023-02-21T07:38:27;98165.54;;;20.25;51.03
52653;BME280;39353;42.864;12.014;2023-02-21T07:40:58;98166.95;;;20.17;50.33
52653;BME280;39353;42.864;12.014;2023-02-21T07:43:43;98166.73;;;20.16;51.50
52653;BME280;39353;42.864;12.014;2023-02-21T07:46:26;98168.08;;;20.18;51.58
52653;BME280;39353;42.864;12.014;2023-02-21T07:49:08;98172.83;;;20.20;51.73
52653;BME280;39353;42.864;12.014;2023-02-21T07:51:51;98169.41;;;20.13;48.21
52653;BME280;39353;42.864;12.014;2023-02-21T07:54:18;98171.95;;;19.99;49.23
52653;BME280;39353;42.864;12.014;2023-02-21T07:56:48;98169.41;;;19.98;50.35
52653;BME280;39353;42.864;12.014;2023-02-21T07:59:29;98173.11;;;19.99;50.73
52653;BME280;39353;42.864;12.014;2023-02-21T08:01:57;98172.09;;;20.01;50.87
52653;BME280;39353;42.864;12.014;2023-02-21T08:04:38;98172.67;;;20.02;51.01
52653;BME280;39353;42.864;12.014;2023-02-21T08:07:19;98172.02;;;20.03;51.13
52653;BME280;39353;42.864;12.014;2023-02-21T08:09:46;98169.13;;;20.04;51.07
52653;BME280;39353;42.864;12.014;2023-02-21T08:12:28;98169.05;;;20.05;51.14
52653;BME280;39353;42.864;12.014;2023-02-21T08:15:10;98167.77;;;20.03;50.79
52653;BME280;39353;42.864;12.014;2023-02-21T08:17:38;98167.45;;;20.03;51.18
52653;BME280;39353;42.864;12.014;2023-02-21T08:20:07;98165.43;;;20.02;51.50
52653;BME280;39353;42.864;12.014;2023-02-21T08:22:48;98167.18;;;20.02;51.56
52653;BME280;39353;42.864;12.014;2023-02-21T08:25:17;98171.67;;;20.03;51.55
52653;BME280;39353;42.864;12.014;2023-02-21T08:27:45;98166.27;;;20.03;51.67
52653;BME280;39353;42.864;12.014;2023-02-21T08:30:18;98165.52;;;20.03;51.87
52653;BME280;39353;42.864;12.014;2023-02-21T08:33:00;98160.91;;;20.02;51.73
52653;BME280;39353;42.864;12.014;2023-02-21T08:38:39;98165.39;;;20.04;51.88
52653;BME280;39353;42.864;12.014;2023-02-21T08:41:20;98169.80;;;20.03;51.94
52653;BME280;39353;42.864;12.014;2023-02-21T08:43:47;98168.85;;;20.05;51.90
52653;BME280;39353;42.864;12.014;2023-02-21T08:46:14;98169.19;;;20.08;51.80
52653;BME280;39353;42.864;12.014;2023-02-21T08:48:41;98161.73;;;20.11;51.82
52653;BME280;39353;42.864;12.014;2023-02-21T08:51:28;98166.85;;;20.15;51.70
52653;BME280;39353;42.864;12.014;2023-02-21T08:54:00;98167.91;;;20.17;51.78
52653;BME280;39353;42.864;12.014;2023-02-21T08:56:28;98167.20;;;20.18;50.95
52653;BME280;39353;42.864;12.014;2023-02-21T08:58:56;98170.02;;;20.21;51.36
52653;BME280;39353;42.864;12.014;2023-02-21T09:01:28;98169.58;;;20.24;51.43
52653;BME280;39353;42.864;12.014;2023-02-21T09:03:56;98169.77;;;20.27;51.15
52653;BME280;39353;42.864;12.014;2023-02-21T09:06:23;98170.53;;;20.28;50.90
52653;BME280;39353;42.864;12.014;2023-02-21T09:08:50;98169.58;;;20.30;50.76
52653;BME280;39353;42.864;12.014;2023-02-21T09:11:18;98167.56;;;20.30;50.48
52653;BME280;39353;42.864;12.014;2023-02-21T09:13:45;98168.69;;;20.28;50.49
52653;BME280;39353;42.864;12.014;2023-02-21T09:16:25;98173.80;;;20.31;50.96
52653;BME280;39353;42.864;12.014;2023-02-21T09:18:57;98171.14;;;20.33;50.90
52653;BME280;39353;42.864;12.014;2023-02-21T09:21:27;98169.80;;;20.35;50.80
52653;BME280;39353;42.864;12.014;2023-02-21T09:23:55;98174.63;;;20.37;50.76
52653;BME280;39353;42.864;12.014;2023-02-21T09:26:38;98172.04;;;20.39;50.69
52653;BME280;39353;42.864;12.014;2023-02-21T09:29:08;98175.77;;;20.41;50.79
52653;BME280;39353;42.864;12.014;2023-02-21T09:31:52;98177.99;;;20.43;50.64
52653;BME280;39353;42.864;12.014;2023-02-21T09:34:19;98171.88;;;20.44;50.70
52653;BME280;39353;42.864;12.014;2023-02-21T09:37:05;98173.73;;;20.45;50.80
52653;BME280;39353;42.864;12.014;2023-02-21T09:39:32;98174.14;;;20.46;50.80
52653;BME280;39353;42.864;12.014;2023-02-21T09:42:18;98172.59;;;20.45;50.75
52653;BME280;39353;42.864;12.014;2023-02-21T09:45:02;98173.64;;;20.46;50.76
52653;BME280;39353;42.864;12.014;2023-02-21T09:47:35;98173.23;;;20.46;50.70
52653;BME280;39353;42.864;12.014;2023-02-21T09:50:09;98169.48;;;20.47;50.80
52653;BME280;39353;42.864;12.014;2023-02-21T09:52:58;98167.38;;;20.46;50.79
52653;BME280;39353;42.864;12.014;2023-02-21T09:55:40;98170.75;;;20.47;50.73
52653;BME280;39353;42.864;12.014;2023-02-21T09:58:14;98167.14;;;20.47;50.91
52653;BME280;39353;42.864;12.014;2023-02-21T10:00:41;98166.56;;;20.49;50.65
52653;BME280;39353;42.864;12.014;2023-02-21T10:03:45;98170.38;;;20.48;50.74
52653;BME280;39353;42.864;12.014;2023-02-21T10:06:55;98162.38;;;20.49;50.91
52653;BME280;39353;42.864;12.014;2023-02-21T10:20:12;98161.58;;;20.59;50.79
52653;BME280;39353;42.864;12.014;2023-02-21T10:22:43;98163.00;;;20.57;50.85
52653;BME280;39353;42.864;12.014;2023-02-21T10:25:31;98159.46;;;20.56;50.69
52653;BME280;39353;42.864;12.014;2023-02-21T10:27:59;98164.09;;;20.56;50.86
52653;BME280;39353;42.864;12.014;2023-02-21T10:30:54;98160.77;;;20.56;50.69
52653;BME280;39353;42.864;12.014;2023-02-21T10:33:23;98157.29;;;20.55;50.64
52653;BME280;39353;42.864;12.014;2023-02-21T10:35:50;98154.82;;;20.55;50.54
52653;BME280;39353;42.864;12.014;2023-02-21T10:38:34;98156.91;;;20.57;50.67
52653;BME280;39353;42.864;12.014;2023-02-21T10:41:07;98158.71;;;20.57;50.55
52653;BME280;39353;42.864;12.014;2023-02-21T10:43:55;98153.92;;;20.57;50.38
52653;BME280;39353;42.864;12.014;2023-02-21T10:46:45;98152.31;;;20.60;50.17
52653;BME280;39353;42.864;12.014;2023-02-21T10:52:13;98148.87;;;20.64;50.07
52653;BME280;39353;42.864;12.014;2023-02-21T10:55:05;98148.11;;;20.64;50.09
52653;BME280;39353;42.864;12.014;2023-02-21T10:57:53;98142.53;;;20.65;50.03
52653;BME280;39353;42.864;12.014;2023-02-21T11:00:38;98141.29;;;20.66;50.27
52653;BME280;39353;42.864;12.014;2023-02-21T11:03:23;98140.81;;;20.70;50.40
52653;BME280;39353;42.864;12.014;2023-02-21T11:06:07;98133.48;;;20.74;50.67
52653;BME280;39353;42.864;12.014;2023-02-21T11:08:50;98130.95;;;20.77;51.29
52653;BME280;39353;42.864;12.014;2023-02-21T11:11:34;98125.88;;;20.78;51.55
52653;BME280;39353;42.864;12.014;2023-02-21T11:16:44;98119.95;;;20.81;52.31
52653;BME280;39353;42.864;12.014;2023-02-21T11:19:25;98119.52;;;20.85;52.64
52653;BME280;39353;42.864;12.014;2023-02-21T11:22:06;98115.88;;;20.85;52.80
52653;BME280;39353;42.864;12.014;2023-02-21T11:27:40;98106.02;;;20.85;52.73
52653;BME280;39353;42.864;12.014;2023-02-21T11:30:21;98101.77;;;20.86;52.74
52653;BME280;39353;42.864;12.014;2023-02-21T11:33:04;98097.59;;;20.88;52.67
52653;BME280;39353;42.864;12.014;2023-02-21T11:35:45;98094.26;;;20.92;52.57
52653;BME280;39353;42.864;12.014;2023-02-21T11:38:42;98090.77;;;20.98;52.80
52653;BME280;39353;42.864;12.014;2023-02-21T11:41:22;98092.76;;;21.06;52.90
52653;BME280;39353;42.864;12.014;2023-02-21T11:43:51;98088.38;;;21.15;52.93
52653;BME280;39353;42.864;12.014;2023-02-21T11:46:45;98081.98;;;21.22;52.75
52653;BME280;39353;42.864;12.014;2023-02-21T11:55:28;98066.81;;;21.37;53.02
52653;BME280;39353;42.864;12.014;2023-02-21T11:58:29;98064.61;;;21.43;53.36
52653;BME280;39353;42.864;12.014;2023-02-21T12:01:20;98058.10;;;21.52;54.12
52653;BME280;39353;42.864;12.014;2023-02-21T12:09:37;98040.34;;;21.73;56.35
52653;BME280;39353;42.864;12.014;2023-02-21T12:14:54;98038.52;;;21.78;55.89
52653;BME280;39353;42.864;12.014;2023-02-21T12:20:49;98034.34;;;21.80;55.36
52653;BME280;39353;42.864;12.014;2023-02-21T12:36:29;98009.48;;;21.94;53.86
52653;BME280;39353;42.864;12.014;2023-02-21T12:39:34;98006.27;;;21.99;53.59
52653;BME280;39353;42.864;12.014;2023-02-21T12:42:27;98000.64;;;22.02;53.14
52653;BME280;39353;42.864;12.014;2023-02-21T12:50:57;97992.15;;;22.10;52.48
52653;BME280;39353;42.864;12.014;2023-02-21T12:53:50;97988.33;;;22.12;52.15
52653;BME280;39353;42.864;12.014;2023-02-21T12:57:08;97988.15;;;22.13;51.87
52653;BME280;39353;42.864;12.014;2023-02-21T12:59:54;97984.27;;;22.14;51.98
52653;BME280;39353;42.864;12.014;2023-02-21T13:02:37;97979.04;;;22.17;52.04
52653;BME280;39353;42.864;12.014;2023-02-21T13:05:32;97979.77;;;22.20;51.77
52653;BME280;39353;42.864;12.014;2023-02-21T13:08:16;97976.98;;;22.16;49.99
52653;BME280;39353;42.864;12.014;2023-02-21T13:11:30;97972.25;;;22.14;50.32
52653;BME280;39353;42.864;12.014;2023-02-21T13:14:34;97970.77;;;22.22;50.05
52653;BME280;39353;42.864;12.014;2023-02-21T13:17:17;97970.34;;;22.32;50.05
52653;BME280;39353;42.864;12.014;2023-02-21T13:19:54;97972.11;;;22.40;50.12
52653;BME280;39353;42.864;12.014;2023-02-21T13:26:51;97966.82;;;22.57;49.96
52653;BME280;39353;42.864;12.014;2023-02-21T13:29:37;97962.85;;;22.65;49.79
52653;BME280;39353;42.864;12.014;2023-02-21T13:32:26;97956.95;;;22.71;49.81
52653;BME280;39353;42.864;12.014;2023-02-21T13:34:59;97955.98;;;22.73;49.62
52653;BME280;39353;42.864;12.014;2023-02-21T13:37:46;97954.17;;;22.75;49.54
52653;BME280;39353;42.864;12.014;2023-02-21T13:40:35;97954.50;;;22.73;49.43
52653;BME280;39353;42.864;12.014;2023-02-21T13:43:27;97951.77;;;22.73;49.46
52653;BME280;39353;42.864;12.014;2023-02-21T13:52:26;97940.70;;;22.86;49.36
52653;BME280;39353;42.864;12.014;2023-02-21T14:11:26;97925.08;;;22.90;49.23
52653;BME280;39353;42.864;12.014;2023-02-21T14:14:30;97923.88;;;22.88;49.09
52653;BME280;39353;42.864;12.014;2023-02-21T14:17:13;97922.98;;;22.86;49.14
52653;BME280;39353;42.864;12.014;2023-02-21T14:19:55;97920.23;;;22.84;49.05
52653;BME280;39353;42.864;12.014;2023-02-21T14:22:39;97917.50;;;22.82;49.16
52653;BME280;39353;42.864;12.014;2023-02-21T14:25:19;97920.09;;;22.81;49.04
52653;BME280;39353;42.864;12.014;2023-02-21T14:31:11;97912.38;;;22.75;49.27
52653;BME280;39353;42.864;12.014;2023-02-21T14:33:39;97908.46;;;22.70;49.30
52653;BME280;39353;42.864;12.014;2023-02-21T14:36:10;97914.42;;;22.65;49.26
52653;BME280;39353;42.864;12.014;2023-02-21T14:38:57;97916.91;;;22.58;49.12
52653;BME280;39353;42.864;12.014;2023-02-21T14:52:34;97909.54;;;22.36;49.16
52653;BME280;39353;42.864;12.014;2023-02-21T14:55:38;97911.17;;;22.32;49.40
52653;BME280;39353;42.864;12.014;2023-02-21T15:07:38;97898.86;;;22.12;49.71
52653;BME280;39353;42.864;12.014;2023-02-21T15:15:41;97900.00;;;22.03;49.77
52653;BME280;39353;42.864;12.014;2023-02-21T15:18:32;97896.44;;;22.01;49.76
52653;BME280;39353;42.864;12.014;2023-02-21T15:21:19;97893.88;;;22.01;49.73
52653;BME280;39353;42.864;12.014;2023-02-21T15:24:12;97892.82;;;22.03;49.52
52653;BME280;39353;42.864;12.014;2023-02-21T15:27:07;97890.40;;;21.99;49.22
52653;BME280;39353;42.864;12.014;2023-02-21T15:30:06;97889.02;;;21.99;49.43
52653;BME280;39353;42.864;12.014;2023-02-21T15:32:35;97884.67;;;21.97;49.61
52653;BME280;39353;42.864;12.014;2023-02-21T15:35:22;97886.39;;;21.97;49.57
52653;BME280;39353;42.864;12.014;2023-02-21T15:38:21;97884.35;;;21.96;49.58
52653;BME280;39353;42.864;12.014;2023-02-21T15:40:53;97884.35;;;21.95;49.63
52653;BME280;39353;42.864;12.014;2023-02-21T15:43:41;97880.79;;;21.94;49.72
52653;BME280;39353;42.864;12.014;2023-02-21T15:46:18;97882.55;;;21.93;49.61
52653;BME280;39353;42.864;12.014;2023-02-21T15:52:47;97875.71;;;21.96;49.33
52653;BME280;39353;42.864;12.014;2023-02-21T15:55:31;97872.77;;;21.98;49.25
52653;BME280;39353;42.864;12.014;2023-02-21T15:58:20;97873.41;;;22.01;49.23
52653;BME280;39353;42.864;12.014;2023-02-21T16:01:10;97872.80;;;22.04;49.24
52653;BME280;39353;42.864;12.014;2023-02-21T16:04:15;97869.79;;;22.07;49.29
52653;BME280;39353;42.864;12.014;2023-02-21T16:06:59;97873.63;;;22.09;49.15
52653;BME280;39353;42.864;12.014;2023-02-21T16:09:45;97870.21;;;22.10;49.08
52653;BME280;39353;42.864;12.014;2023-02-21T16:12:44;97873.35;;;22.11;49.18
52653;BME280;39353;42.864;12.014;2023-02-21T16:18:01;97872.03;;;22.10;49.15
52653;BME280;39353;42.864;12.014;2023-02-21T16:20:39;97872.20;;;22.10;49.19
52653;BME280;39353;42.864;12.014;2023-02-21T16:23:30;97878.09;;;22.09;49.14
52653;BME280;39353;42.864;12.014;2023-02-21T16:28:55;97876.30;;;22.03;48.85
52653;BME280;39353;42.864;12.014;2023-02-21T16:31:31;97877.91;;;22.01;48.57
52653;BME280;39353;42.864;12.014;2023-02-21T16:33:59;97876.41;;;21.99;48.24
52653;BME280;39353;42.864;12.014;2023-02-21T16:36:29;97872.90;;;21.97;47.95
52653;BME280;39353;42.864;12.014;2023-02-21T16:39:10;97873.36;;;21.97;47.91
52653;BME280;39353;42.864;12.014;2023-02-21T16:41:37;97871.54;;;21.99;48.13
52653;BME280;39353;42.864;12.014;2023-02-21T16:44:18;97871.86;;;22.00;48.30
52653;BME280;39353;42.864;12.014;2023-02-21T16:46:46;97871.68;;;22.01;48.53